createdAt,value
2022-08-14T00:02:27.837Z,21.63
2022-08-14T00:05:00.963Z,21.60
2022-08-14T00:07:29.285Z,21.55
2022-08-14T00:10:49.420Z,21.53
2022-08-14T00:12:56.872Z,21.52
2022-08-14T00:15:29.980Z,21.47
2022-08-14T00:18:09.021Z,21.48
2022-08-14T00:20:45.214Z,21.37
2022-08-14T00:23:17.883Z,21.32
2022-08-14T00:25:54.107Z,21.30
2022-08-14T00:28:37.026Z,21.26
2022-08-14T00:31:07.992Z,21.23
2022-08-14T00:33:50.921Z,21.21
2022-08-14T00:36:36.780Z,21.15
2022-08-14T00:39:14.996Z,21.13
2022-08-14T00:41:48.127Z,21.12
2022-08-14T00:44:26.697Z,21.09
2022-08-14T00:47:03.418Z,21.09
2022-08-14T00:49:38.330Z,20.94
2022-08-14T00:52:17.581Z,20.89
2022-08-14T00:54:57.707Z,20.84
2022-08-14T00:57:30.339Z,20.71
2022-08-14T01:00:00.477Z,20.67
2022-08-14T01:02:31.675Z,20.65
2022-08-14T01:05:02.750Z,20.63
2022-08-14T01:07:41.471Z,20.60
2022-08-14T01:10:19.182Z,20.54
2022-08-14T01:12:48.692Z,20.54
2022-08-14T01:15:21.440Z,20.53
2022-08-14T01:18:27.213Z,20.45
2022-08-14T01:21:11.654Z,20.42
2022-08-14T01:23:46.702Z,20.46
2022-08-14T01:26:34.654Z,20.40
2022-08-14T01:29:07.478Z,20.33
2022-08-14T01:31:45.455Z,20.36
2022-08-14T01:35:18.820Z,20.37
2022-08-14T01:37:07.753Z,20.35
2022-08-14T01:39:40.349Z,20.35
2022-08-14T01:42:08.994Z,20.29
2022-08-14T01:44:57.618Z,20.25
2022-08-14T01:47:26.914Z,20.25
2022-08-14T01:50:02.135Z,20.22
2022-08-14T01:52:58.372Z,20.22
2022-08-14T01:55:30.487Z,20.25
2022-08-14T01:58:19.027Z,20.23
2022-08-14T02:00:48.414Z,20.22
2022-08-14T02:03:17.410Z,20.18
2022-08-14T02:05:46.090Z,20.13
2022-08-14T02:08:15.987Z,20.10
2022-08-14T02:11:14.335Z,20.10
2022-08-14T02:13:43.926Z,20.07
2022-08-14T02:16:22.407Z,20.04
2022-08-14T02:18:51.327Z,19.99
2022-08-14T02:21:23.384Z,19.99
2022-08-14T02:23:54.499Z,19.96
2022-08-14T02:26:29.174Z,19.97
2022-08-14T02:29:03.506Z,19.95
2022-08-14T02:31:43.596Z,19.99
2022-08-14T02:34:22.541Z,19.94
2022-08-14T02:37:03.639Z,19.93
2022-08-14T02:39:38.124Z,19.94
2022-08-14T02:42:13.561Z,19.96
2022-08-14T02:44:49.447Z,19.96
2022-08-14T02:47:20.941Z,19.89
2022-08-14T02:49:56.698Z,19.88
2022-08-14T02:52:57.460Z,19.86
2022-08-14T02:55:20.431Z,19.83
2022-08-14T02:57:58.021Z,19.90
2022-08-14T03:00:35.508Z,19.81
2022-08-14T03:03:08.493Z,19.85
2022-08-14T03:05:41.155Z,19.86
2022-08-14T03:08:15.338Z,19.83
2022-08-14T03:10:49.169Z,19.80
2022-08-14T03:13:21.503Z,19.74
2022-08-14T03:15:55.292Z,19.73
2022-08-14T03:18:32.074Z,19.66
2022-08-14T03:21:03.727Z,19.62
2022-08-14T03:23:38.265Z,19.60
2022-08-14T03:26:13.262Z,19.60
2022-08-14T03:28:51.255Z,19.57
2022-08-14T03:31:25.936Z,19.58
2022-08-14T03:33:54.655Z,19.58
2022-08-14T03:37:39.446Z,19.60
2022-08-14T03:39:22.209Z,19.58
2022-08-14T03:41:55.030Z,19.54
2022-08-14T03:45:19.789Z,19.54
2022-08-14T03:47:15.499Z,19.43
2022-08-14T03:49:50.186Z,19.46
2022-08-14T03:52:40.532Z,19.43
2022-08-14T03:55:09.900Z,19.38
2022-08-14T03:57:40.545Z,19.36
2022-08-14T04:00:43.426Z,19.29
2022-08-14T04:03:02.530Z,19.25
2022-08-14T04:05:42.515Z,19.27
2022-08-14T04:08:23.135Z,19.13
2022-08-14T04:11:01.162Z,19.10
2022-08-14T04:13:31.868Z,19.13
2022-08-14T04:16:06.766Z,19.07
2022-08-14T04:18:42.423Z,19.05
2022-08-14T04:21:11.995Z,19.01
2022-08-14T04:23:40.911Z,19.07
2022-08-14T04:26:14.540Z,19.08
2022-08-14T04:29:07.632Z,19.01
2022-08-14T04:33:10.695Z,19.09
2022-08-14T04:34:27.348Z,18.99
2022-08-14T04:37:22.419Z,18.94
2022-08-14T04:40:15.115Z,18.92
2022-08-14T04:43:00.818Z,18.89
2022-08-14T04:45:40.524Z,18.95
2022-08-14T04:48:39.999Z,18.95
2022-08-14T04:51:06.174Z,18.95
2022-08-14T04:53:42.966Z,18.99
2022-08-14T04:56:33.833Z,18.99
2022-08-14T04:59:10.438Z,19.04
2022-08-14T05:01:49.037Z,19.07
2022-08-14T05:04:21.707Z,19.07
2022-08-14T05:06:53.316Z,19.15
2022-08-14T05:09:22.489Z,19.14
2022-08-14T05:11:51.440Z,19.11
2022-08-14T05:14:46.784Z,19.12
2022-08-14T05:17:11.001Z,19.22
2022-08-14T05:19:44.647Z,19.31
2022-08-14T05:22:29.955Z,19.41
2022-08-14T05:24:58.492Z,19.40
2022-08-14T05:27:26.566Z,19.40
2022-08-14T05:29:59.268Z,19.51
2022-08-14T05:32:28.248Z,19.49
2022-08-14T05:34:59.555Z,19.51
2022-08-14T05:37:29.864Z,19.50
2022-08-14T05:40:00.942Z,19.64
2022-08-14T05:42:32.111Z,19.62
2022-08-14T05:45:05.139Z,19.63
2022-08-14T05:47:42.018Z,19.72
2022-08-14T05:50:17.354Z,19.79
2022-08-14T05:52:50.101Z,19.83
2022-08-14T05:55:22.174Z,19.87
2022-08-14T05:57:54.654Z,19.92
2022-08-14T06:00:31.670Z,19.98
2022-08-14T06:03:09.787Z,20.11
2022-08-14T06:05:40.179Z,20.17
2022-08-14T06:08:31.307Z,20.25
2022-08-14T06:11:07.404Z,20.33
2022-08-14T06:13:44.516Z,20.39
2022-08-14T06:16:13.178Z,20.53
2022-08-14T06:18:41.211Z,20.57
2022-08-14T06:21:12.869Z,20.69
2022-08-14T06:23:41.726Z,20.76
2022-08-14T06:26:11.049Z,20.85
2022-08-14T06:28:39.078Z,20.94
2022-08-14T06:31:11.199Z,21.00
2022-08-14T06:35:01.199Z,21.11
2022-08-14T06:36:29.409Z,21.19
2022-08-14T06:38:57.560Z,21.26
2022-08-14T06:41:35.941Z,21.36
2022-08-14T06:44:13.671Z,21.47
2022-08-14T06:46:42.152Z,21.59
2022-08-14T06:49:17.612Z,21.73
2022-08-14T06:51:47.028Z,21.82
2022-08-14T06:54:18.311Z,21.82
2022-08-14T06:56:54.451Z,21.99
2022-08-14T06:59:25.171Z,22.08
2022-08-14T07:02:13.207Z,22.15
2022-08-14T07:04:59.502Z,22.20
2022-08-14T07:07:39.318Z,22.27
2022-08-14T07:10:16.914Z,22.42
2022-08-14T07:13:01.999Z,22.62
2022-08-14T07:15:33.671Z,22.84
2022-08-14T07:18:03.634Z,23.07
2022-08-14T07:20:33.484Z,23.22
2022-08-14T07:23:08.675Z,23.31
2022-08-14T07:25:42.119Z,23.40
2022-08-14T07:28:20.686Z,23.54
2022-08-14T07:30:50.845Z,23.60
2022-08-14T07:33:28.943Z,23.74
2022-08-14T07:36:00.855Z,23.95
2022-08-14T07:38:37.805Z,24.01
2022-08-14T07:41:16.439Z,24.10
2022-08-14T07:43:55.137Z,24.30
2022-08-14T07:46:28.634Z,24.47
2022-08-14T07:48:57.931Z,24.60
2022-08-14T07:51:34.003Z,24.77
2022-08-14T07:54:09.843Z,24.86
2022-08-14T07:56:47.157Z,24.90
2022-08-14T07:59:18.124Z,25.06
2022-08-14T08:01:51.283Z,25.17
2022-08-14T08:04:27.074Z,25.42
2022-08-14T08:06:56.023Z,25.45
2022-08-14T08:09:32.553Z,25.58
2022-08-14T08:12:04.969Z,25.88
2022-08-14T08:14:55.538Z,26.17
2022-08-14T08:17:24.458Z,26.28
2022-08-14T08:19:52.584Z,26.28
2022-08-14T08:22:21.368Z,26.27
2022-08-14T08:24:51.382Z,26.33
2022-08-14T08:27:21.373Z,26.54
2022-08-14T08:29:50.537Z,26.90
2022-08-14T08:32:29.654Z,26.95
2022-08-14T08:34:58.251Z,27.12
2022-08-14T08:37:30.892Z,27.13
2022-08-14T08:40:11.454Z,27.14
2022-08-14T08:42:53.140Z,27.40
2022-08-14T08:45:23.645Z,27.57
2022-08-14T08:47:52.876Z,27.91
2022-08-14T08:50:31.693Z,28.10
2022-08-14T08:53:02.648Z,28.35
2022-08-14T08:55:36.669Z,28.51
2022-08-14T08:58:12.523Z,28.54
2022-08-14T09:00:49.901Z,28.66
2022-08-14T09:03:27.434Z,28.78
2022-08-14T09:05:59.184Z,28.90
2022-08-14T09:08:31.581Z,28.92
2022-08-14T09:11:19.697Z,28.94
2022-08-14T09:13:52.971Z,29.10
2022-08-14T09:16:23.671Z,29.17
2022-08-14T09:18:53.876Z,29.30
2022-08-14T09:21:24.260Z,29.22
2022-08-14T09:24:28.245Z,29.33
2022-08-14T09:26:49.349Z,29.42
2022-08-14T09:29:22.905Z,29.54
2022-08-14T09:31:58.830Z,29.61
2022-08-14T09:34:58.998Z,29.77
2022-08-14T09:37:40.264Z,29.88
2022-08-14T09:40:21.988Z,30.01
2022-08-14T09:43:03.528Z,30.10
2022-08-14T09:45:40.091Z,30.12
2022-08-14T09:48:30.172Z,30.13
2022-08-14T09:54:18.037Z,30.28
2022-08-14T09:56:43.569Z,30.26
2022-08-14T09:59:16.034Z,30.42
2022-08-14T10:01:53.167Z,30.52
2022-08-14T10:04:35.783Z,30.69
2022-08-14T10:07:08.111Z,30.75
2022-08-14T10:09:59.610Z,30.71
2022-08-14T10:12:46.529Z,30.69
2022-08-14T10:15:20.542Z,30.57
2022-08-14T10:17:49.984Z,30.59
2022-08-14T10:20:41.085Z,30.63
2022-08-14T10:23:16.132Z,30.70
2022-08-14T10:25:47.578Z,30.75
2022-08-14T10:28:39.190Z,30.83
2022-08-14T10:31:25.769Z,30.77
2022-08-14T10:34:12.929Z,30.76
2022-08-14T10:36:44.843Z,30.80
2022-08-14T10:39:19.353Z,30.87
2022-08-14T10:41:54.128Z,30.76
2022-08-14T10:44:29.546Z,30.98
2022-08-14T10:47:40.691Z,31.01
2022-08-14T10:49:59.638Z,31.14
2022-08-14T10:52:31.782Z,30.96
2022-08-14T10:55:13.226Z,31.05
2022-08-14T10:57:53.567Z,31.13
2022-08-14T11:00:29.558Z,31.04
2022-08-14T11:03:09.649Z,30.94
2022-08-14T11:05:43.902Z,30.95
2022-08-14T11:08:14.291Z,31.07
2022-08-14T11:10:48.497Z,30.92
2022-08-14T11:13:24.146Z,30.84
2022-08-14T11:15:53.540Z,30.90
2022-08-14T11:18:32.581Z,31.12
2022-08-14T11:21:09.351Z,31.23
2022-08-14T11:23:43.726Z,31.29
2022-08-14T11:26:13.731Z,31.45
2022-08-14T11:28:48.144Z,31.63
2022-08-14T11:31:23.243Z,31.66
2022-08-14T11:33:58.138Z,31.63
2022-08-14T11:36:57.223Z,31.43
2022-08-14T11:39:35.091Z,31.51
2022-08-14T11:42:55.475Z,31.45
2022-08-14T11:45:00.064Z,31.67
2022-08-14T11:47:35.512Z,31.58
2022-08-14T11:50:33.500Z,31.45
2022-08-14T11:53:05.260Z,31.51
2022-08-14T11:55:38.561Z,31.57
2022-08-14T11:58:11.079Z,31.66
2022-08-14T12:00:52.528Z,31.66
2022-08-14T12:03:37.582Z,31.54
2022-08-14T12:06:29.185Z,31.41
2022-08-14T12:09:01.260Z,31.32
2022-08-14T12:11:43.160Z,31.59
2022-08-14T12:14:29.455Z,31.68
2022-08-14T12:17:01.945Z,31.70
2022-08-14T12:19:33.402Z,31.68
2022-08-14T12:22:06.785Z,31.68
2022-08-14T12:24:36.485Z,31.74
2022-08-14T12:27:05.743Z,31.80
2022-08-14T12:29:35.254Z,31.73
2022-08-14T12:32:08.897Z,31.75
2022-08-14T12:34:45.207Z,31.69
2022-08-14T12:37:14.939Z,31.59
2022-08-14T12:39:43.044Z,31.58
2022-08-14T12:42:27.376Z,31.59
2022-08-14T12:45:03.905Z,31.58
2022-08-14T12:47:32.688Z,31.69
2022-08-14T12:50:01.241Z,31.45
2022-08-14T12:52:41.721Z,31.34
2022-08-14T12:55:22.076Z,31.25
2022-08-14T12:57:53.729Z,31.37
2022-08-14T13:00:24.523Z,31.33
2022-08-14T13:02:56.473Z,31.41
2022-08-14T13:05:29.946Z,31.43
2022-08-14T13:08:01.582Z,31.49
2022-08-14T13:10:51.259Z,31.52
2022-08-14T13:13:21.517Z,31.49
2022-08-14T13:15:57.377Z,31.51
2022-08-14T13:18:27.975Z,31.45
2022-08-14T13:20:59.671Z,31.31
2022-08-14T13:23:37.381Z,31.22
2022-08-14T13:26:07.819Z,31.13
2022-08-14T13:29:02.199Z,31.28
2022-08-14T13:31:34.412Z,31.27
2022-08-14T13:34:03.411Z,31.36
2022-08-14T13:36:55.007Z,31.37
2022-08-14T13:39:27.165Z,31.45
2022-08-14T13:41:55.863Z,31.39
2022-08-14T13:44:28.730Z,31.46
2022-08-14T13:46:58.218Z,31.34
2022-08-14T13:49:29.049Z,31.30
2022-08-14T13:52:03.437Z,31.34
2022-08-14T13:54:51.056Z,31.47
2022-08-14T13:57:30.385Z,31.36
2022-08-14T14:00:03.086Z,31.32
2022-08-14T14:02:40.851Z,31.36
2022-08-14T14:05:18.701Z,31.35
2022-08-14T14:07:53.353Z,31.38
2022-08-14T14:10:28.400Z,31.45
2022-08-14T14:12:56.810Z,31.48
2022-08-14T14:15:28.709Z,31.37
2022-08-14T14:18:03.155Z,31.35
2022-08-14T14:20:35.471Z,31.34
2022-08-14T14:23:09.645Z,31.42
2022-08-14T14:25:51.072Z,31.42
2022-08-14T14:28:31.696Z,31.41
2022-08-14T14:31:06.081Z,31.29
2022-08-14T14:33:52.186Z,31.21
2022-08-14T14:36:29.451Z,31.17
2022-08-14T14:39:01.081Z,31.22
2022-08-14T14:41:38.626Z,31.26
2022-08-14T14:44:15.891Z,31.21
2022-08-14T14:46:50.955Z,31.15
2022-08-14T14:49:25.902Z,31.08
2022-08-14T14:52:23.483Z,30.97
2022-08-14T14:54:58.766Z,30.89
2022-08-14T14:57:34.748Z,30.87
2022-08-14T15:00:12.748Z,30.84
2022-08-14T15:02:45.024Z,30.88
2022-08-14T15:05:16.030Z,30.97
2022-08-14T15:07:45.298Z,30.99
2022-08-14T15:10:27.683Z,31.00
2022-08-14T15:13:04.384Z,30.98
2022-08-14T15:15:37.424Z,30.91
2022-08-14T15:18:14.762Z,30.90
2022-08-14T15:20:57.453Z,30.83
2022-08-14T15:23:32.516Z,30.81
2022-08-14T15:26:23.418Z,30.77
2022-08-14T15:29:04.986Z,30.75
2022-08-14T15:31:37.149Z,30.68
2022-08-14T15:34:43.613Z,30.75
2022-08-14T15:37:00.567Z,30.88
2022-08-14T15:39:34.132Z,30.86
2022-08-14T15:42:14.224Z,30.82
2022-08-14T15:44:56.807Z,30.80
2022-08-14T15:47:28.679Z,30.80
2022-08-14T15:49:59.363Z,30.69
2022-08-14T15:52:54.261Z,30.66
2022-08-14T15:55:23.100Z,30.73
2022-08-14T15:58:02.429Z,30.79
2022-08-14T16:00:52.494Z,30.76
2022-08-14T16:03:24.954Z,30.79
2022-08-14T16:05:56.545Z,30.71
2022-08-14T16:08:27.212Z,30.64
2022-08-14T16:10:58.608Z,30.61
2022-08-14T16:13:41.196Z,30.63
2022-08-14T16:16:47.772Z,30.55
2022-08-14T16:19:11.147Z,30.56
2022-08-14T16:22:01.931Z,30.59
2022-08-14T16:24:35.761Z,30.60
2022-08-14T16:27:05.387Z,30.58
2022-08-14T16:29:40.774Z,30.54
2022-08-14T16:32:32.510Z,30.53
2022-08-14T16:35:04.691Z,30.43
2022-08-14T16:37:35.242Z,30.43
2022-08-14T16:40:07.595Z,30.45
2022-08-14T16:43:04.341Z,30.40
2022-08-14T16:45:31.889Z,30.29
2022-08-14T16:48:03.136Z,30.26
2022-08-14T16:50:51.211Z,30.24
2022-08-14T16:53:19.221Z,30.28
2022-08-14T16:56:23.290Z,30.31
2022-08-14T16:59:09.263Z,30.19
2022-08-14T17:01:44.062Z,30.17
2022-08-14T17:04:25.303Z,30.18
2022-08-14T17:06:57.819Z,30.18
2022-08-14T17:09:33.916Z,30.13
2022-08-14T17:12:09.355Z,30.08
2022-08-14T17:15:03.455Z,30.02
2022-08-14T17:17:49.829Z,29.97
2022-08-14T17:20:39.811Z,29.89
2022-08-14T17:23:17.942Z,29.81
2022-08-14T17:25:50.973Z,29.81
2022-08-14T17:28:50.363Z,29.80
2022-08-14T17:31:12.244Z,29.68
2022-08-14T17:33:44.824Z,29.71
2022-08-14T17:36:24.588Z,29.66
2022-08-14T17:39:06.640Z,29.68
2022-08-14T17:41:43.950Z,29.58
2022-08-14T17:44:21.905Z,29.55
2022-08-14T17:47:04.734Z,29.47
2022-08-14T17:49:40.427Z,29.48
2022-08-14T17:52:16.770Z,29.39
2022-08-14T17:54:53.056Z,29.33
2022-08-14T17:57:40.729Z,29.27
2022-08-14T18:00:14.780Z,29.23
2022-08-14T18:02:50.559Z,29.15
2022-08-14T18:05:23.201Z,29.11
2022-08-14T18:08:31.255Z,29.06
2022-08-14T18:10:55.151Z,29.02
2022-08-14T18:13:51.299Z,28.95
2022-08-14T18:16:20.404Z,28.92
2022-08-14T18:18:51.971Z,28.87
2022-08-14T18:21:41.113Z,28.87
2022-08-14T18:24:19.967Z,28.81
2022-08-14T18:27:08.791Z,28.77
2022-08-14T18:29:55.568Z,28.73
2022-08-14T18:32:47.276Z,28.66
2022-08-14T18:35:46.204Z,28.66
2022-08-14T18:38:25.963Z,28.61
2022-08-14T18:44:17.650Z,28.53
2022-08-14T18:47:24.426Z,28.42
2022-08-14T18:50:27.810Z,28.36
2022-08-14T18:53:07.609Z,28.29
2022-08-14T18:55:52.991Z,28.24
2022-08-14T18:58:31.568Z,28.19
2022-08-14T19:01:06.476Z,28.12
2022-08-14T19:03:58.874Z,28.09
2022-08-14T19:06:56.671Z,28.03
2022-08-14T19:09:57.793Z,27.97
2022-08-14T19:13:00.266Z,27.91
2022-08-14T19:15:33.007Z,27.97
2022-08-14T19:18:27.951Z,27.91
2022-08-14T19:21:00.885Z,27.89
2022-08-14T19:23:42.397Z,27.86
2022-08-14T19:26:36.341Z,27.83
2022-08-14T19:29:37.772Z,27.77
2022-08-14T19:32:39.387Z,27.75
2022-08-14T19:35:49.351Z,27.70
2022-08-14T19:39:04.180Z,27.61
2022-08-14T19:41:35.497Z,27.63
2022-08-14T19:44:10.921Z,27.62
2022-08-14T19:47:01.685Z,27.58
2022-08-14T19:50:30.487Z,27.50
2022-08-14T19:52:29.967Z,27.51
2022-08-14T19:54:58.945Z,27.50
2022-08-14T19:57:29.444Z,27.49
2022-08-14T20:00:05.573Z,27.42
2022-08-14T20:02:41.870Z,27.41
2022-08-14T20:05:12.367Z,27.40
2022-08-14T20:08:00.546Z,27.36
2022-08-14T20:11:03.586Z,27.35
2022-08-14T20:13:32.746Z,27.35
2022-08-14T20:16:12.072Z,27.35
2022-08-14T20:18:48.775Z,27.28
2022-08-14T20:21:19.955Z,27.33
2022-08-14T20:23:50.068Z,27.31
2022-08-14T20:26:31.844Z,27.30
2022-08-14T20:29:06.794Z,27.25
2022-08-14T20:31:38.399Z,27.25
2022-08-14T20:34:19.002Z,27.29
2022-08-14T20:37:04.543Z,27.20
2022-08-14T20:39:40.404Z,27.26
2022-08-14T20:42:32.990Z,27.24
2022-08-14T20:45:24.311Z,27.18
2022-08-14T20:48:01.165Z,27.15
2022-08-14T20:50:31.831Z,27.15
2022-08-14T20:53:05.634Z,27.13
2022-08-14T20:55:41.773Z,27.08
2022-08-14T20:58:44.053Z,27.06
2022-08-14T21:01:35.707Z,27.06
2022-08-14T21:04:22.104Z,27.04
2022-08-14T21:07:24.942Z,27.06
2022-08-14T21:10:06.515Z,27.03
2022-08-14T21:12:36.003Z,27.01
2022-08-14T21:15:11.032Z,27.00
2022-08-14T21:17:43.213Z,26.97
2022-08-14T21:20:21.358Z,26.96
2022-08-14T21:23:00.339Z,27.00
2022-08-14T21:25:31.427Z,26.99
2022-08-14T21:28:04.175Z,27.00
2022-08-14T21:30:51.241Z,27.00
2022-08-14T21:33:23.561Z,26.96
2022-08-14T21:35:54.905Z,26.90
2022-08-14T21:38:33.764Z,26.89
2022-08-14T21:41:42.385Z,26.87
2022-08-14T21:44:05.318Z,26.83
2022-08-14T21:46:50.284Z,26.85
2022-08-14T21:49:23.687Z,26.80
2022-08-14T21:52:00.984Z,26.78
2022-08-14T21:54:50.104Z,26.74
2022-08-14T21:57:55.695Z,26.70
2022-08-14T22:00:35.607Z,26.65
2022-08-14T22:03:03.175Z,26.61
2022-08-14T22:05:33.641Z,26.63
2022-08-14T22:08:12.323Z,26.58
2022-08-14T22:10:44.808Z,26.52
2022-08-14T22:13:17.377Z,26.57
2022-08-14T22:15:50.028Z,26.57
2022-08-14T22:18:21.873Z,26.59
2022-08-14T22:20:56.500Z,26.57
2022-08-14T22:23:27.291Z,26.59
2022-08-14T22:25:56.061Z,26.55
2022-08-14T22:28:32.762Z,26.51
2022-08-14T22:31:03.177Z,26.50
2022-08-14T22:33:32.236Z,26.48
2022-08-14T22:36:25.204Z,26.47
2022-08-14T22:38:54.293Z,26.45
2022-08-14T22:41:29.705Z,26.44
2022-08-14T22:44:04.249Z,26.39
2022-08-14T22:46:34.946Z,26.34
2022-08-14T22:49:15.365Z,26.34
2022-08-14T22:51:53.750Z,26.32
2022-08-14T22:54:52.437Z,26.30
2022-08-14T22:57:12.443Z,26.24
2022-08-14T22:59:40.838Z,26.22
2022-08-14T23:02:13.564Z,26.21
2022-08-14T23:04:53.739Z,26.17
2022-08-14T23:07:24.190Z,26.16
2022-08-14T23:09:56.446Z,26.17
2022-08-14T23:12:29.435Z,26.17
2022-08-14T23:15:00.218Z,26.16
2022-08-14T23:17:39.540Z,26.16
2022-08-14T23:20:19.037Z,26.11
2022-08-14T23:22:54.317Z,26.06
2022-08-14T23:25:57.483Z,26.04
2022-08-14T23:28:34.762Z,25.98
2022-08-14T23:31:09.271Z,25.91
2022-08-14T23:33:41.974Z,25.87
2022-08-14T23:36:32.065Z,25.84
2022-08-14T23:39:10.152Z,25.79
2022-08-14T23:41:46.848Z,25.69
2022-08-14T23:44:23.600Z,25.68
2022-08-14T23:46:57.060Z,25.61
2022-08-14T23:49:57.055Z,25.51
2022-08-14T23:52:50.374Z,25.48
2022-08-14T23:55:11.198Z,25.35
2022-08-14T23:57:43.945Z,25.36
